Country Club Hills, Illinois
Current Conditions -  °F | °C
As of 8:15 AM on Saturday 22 Nov 2014 (Local Time) from KIGQ Reporting Station
Overcast Overcast  
Wind Chill: 30°   Ceiling: 1600
Heat Index: 37°   Visibility: 7mi
Dew Point: 35°   Wind: 10mph
Humidity: 91%   Direction: 200°SSW
Pressure: 30.05"   Gusts: NA
Location:  41.56°N, 87.72°W
Report Text: KIGQ 221415Z AUTO 20009KT 7SM OVC016 03/02 A3005 RMK AO2 T00290015
Loading
Personal Weather Stations






























Interactive Weather Map New forecast layout! Learn more

10-Day Weather Forecast

Advertisements
Track Severe Weather on mobile